createdAt,value
2016-04-26T00:00:44.984Z,0
2016-04-26T00:01:45.112Z,0
2016-04-26T00:02:44.942Z,0
2016-04-26T00:03:44.930Z,0
2016-04-26T00:04:44.776Z,0
2016-04-26T00:05:44.908Z,0
2016-04-26T00:06:44.879Z,0
2016-04-26T00:07:44.851Z,0
2016-04-26T00:08:44.837Z,0
2016-04-26T00:09:44.825Z,0
2016-04-26T00:10:44.796Z,0
2016-04-26T00:11:44.783Z,0
2016-04-26T00:12:44.770Z,0
2016-04-26T00:13:44.742Z,0
2016-04-26T00:14:44.745Z,0
2016-04-26T00:15:44.700Z,0
2016-04-26T00:16:44.703Z,0
2016-04-26T00:17:44.675Z,0
2016-04-26T00:18:44.662Z,0
2016-04-26T00:19:44.648Z,0
2016-04-26T00:20:44.620Z,0
2016-04-26T00:21:44.622Z,0
2016-04-26T00:22:44.578Z,0
2016-04-26T00:23:44.566Z,0
2016-04-26T00:24:44.553Z,0
2016-04-26T00:25:44.524Z,0
2016-04-26T00:26:44.527Z,0
2016-04-26T00:27:44.499Z,0
2016-04-26T00:28:44.469Z,0
2016-04-26T00:29:44.472Z,0
2016-04-26T00:30:44.460Z,0
2016-04-26T00:31:44.963Z,0
2016-04-26T00:32:44.418Z,0
2016-04-26T00:33:44.390Z,0
2016-04-26T00:34:44.376Z,0
2016-04-26T00:35:44.379Z,0
2016-04-26T00:36:44.335Z,0
2016-04-26T00:37:44.307Z,0
2016-04-26T00:38:44.309Z,0
2016-04-26T00:39:44.296Z,0
2016-04-26T00:40:44.268Z,0
2016-04-26T00:41:44.239Z,0
2016-04-26T00:42:44.226Z,0
2016-04-26T00:43:44.056Z,0
2016-04-26T00:44:44.200Z,0
2016-04-26T00:45:44.172Z,0
2016-04-26T00:46:45.205Z,0
2016-04-26T00:47:44.146Z,0
2016-04-26T00:48:44.117Z,0
2016-04-26T00:49:44.103Z,0
2016-04-26T00:50:44.076Z,0
2016-04-26T00:51:44.063Z,0
2016-04-26T00:52:44.050Z,0
2016-04-26T00:53:44.022Z,0
2016-04-26T00:54:44.008Z,0
2016-04-26T00:55:43.995Z,0
2016-04-26T00:56:43.997Z,0
2016-04-26T00:57:43.954Z,0
2016-04-26T00:58:43.925Z,0
2016-04-26T00:59:43.913Z,0
2016-04-26T01:00:43.899Z,0
2016-04-26T01:01:43.918Z,0
2016-04-26T01:02:43.873Z,0
2016-04-26T01:03:43.877Z,0
2016-04-26T01:04:43.833Z,0
2016-04-26T01:05:43.804Z,0
2016-04-26T01:06:43.791Z,0
2016-04-26T01:07:43.793Z,0
2016-04-26T01:08:43.765Z,0
2016-04-26T01:09:43.736Z,0
2016-04-26T01:10:43.724Z,0
2016-04-26T01:11:43.710Z,0
2016-04-26T01:12:43.681Z,0
2016-04-26T01:13:43.669Z,0
2016-04-26T01:14:43.671Z,0
2016-04-26T01:15:43.643Z,0
2016-04-26T01:16:43.506Z,0
2016-04-26T01:17:43.601Z,0
2016-04-26T01:18:43.573Z,0
2016-04-26T01:19:43.560Z,0
2016-04-26T01:20:43.547Z,0
2016-04-26T01:21:43.518Z,0
2016-04-26T01:22:42.756Z,0
2016-04-26T01:23:43.477Z,0
2016-04-26T01:24:43.464Z,0
2016-04-26T01:25:43.451Z,0
2016-04-26T01:26:43.422Z,0
2016-04-26T01:27:43.410Z,0
2016-04-26T01:28:43.397Z,0
2016-04-26T01:29:43.369Z,0
2016-04-26T01:30:43.355Z,0
2016-04-26T01:31:43.296Z,0
2016-04-26T01:32:43.344Z,0
2016-04-26T01:33:43.301Z,0
2016-04-26T01:34:43.288Z,0
2016-04-26T01:35:42.510Z,0
2016-04-26T01:36:43.246Z,0
2016-04-26T01:37:43.077Z,0
2016-04-26T01:38:43.221Z,0
2016-04-26T01:39:43.208Z,0
2016-04-26T01:40:43.195Z,0
2016-04-26T01:41:43.165Z,0
2016-04-26T01:42:43.138Z,0
2016-04-26T01:43:43.109Z,0
2016-04-26T01:44:43.096Z,0
2016-04-26T01:45:43.098Z,0
2016-04-26T01:46:43.274Z,0
2016-04-26T01:47:43.057Z,0
2016-04-26T01:48:43.044Z,0
2016-04-26T01:49:43.015Z,0
2016-04-26T01:50:42.987Z,0
2016-04-26T01:51:42.989Z,0
2016-04-26T01:52:42.962Z,0
2016-04-26T01:53:42.964Z,0
2016-04-26T01:54:42.919Z,0
2016-04-26T01:55:42.892Z,0
2016-04-26T01:56:42.722Z,0
2016-04-26T01:57:42.865Z,0
2016-04-26T01:58:42.853Z,0
2016-04-26T01:59:42.839Z,0
2016-04-26T02:00:42.811Z,0
2016-04-26T02:01:43.220Z,0
2016-04-26T02:02:43.316Z,0
2016-04-26T02:03:42.757Z,0
2016-04-26T02:04:42.728Z,0
2016-04-26T02:05:42.715Z,0
2016-04-26T02:06:42.719Z,0
2016-04-26T02:07:42.674Z,0
2016-04-26T02:08:42.645Z,0
2016-04-26T02:09:42.633Z,0
2016-04-26T02:10:42.619Z,0
2016-04-26T02:11:42.621Z,0
2016-04-26T02:12:42.577Z,0
2016-04-26T02:13:42.565Z,0
2016-04-26T02:14:42.536Z,0
2016-04-26T02:15:42.523Z,0
2016-04-26T02:16:43.385Z,0
2016-04-26T02:17:42.154Z,0
2016-04-26T02:18:42.484Z,0
2016-04-26T02:19:42.456Z,0
2016-04-26T02:20:42.443Z,0
2016-04-26T02:21:42.414Z,0
2016-04-26T02:22:42.548Z,0
2016-04-26T02:23:42.380Z,0
2016-04-26T02:24:41.617Z,0
2016-04-26T02:25:42.338Z,0
2016-04-26T02:26:42.325Z,0
2016-04-26T02:27:42.313Z,0
2016-04-26T02:28:42.299Z,0
2016-04-26T02:29:42.255Z,0
2016-04-26T02:30:42.242Z,0
2016-04-26T02:31:44.121Z,0
2016-04-26T02:32:42.201Z,0
2016-04-26T02:33:42.187Z,0
2016-04-26T02:34:42.159Z,0
2016-04-26T02:35:42.162Z,0
2016-04-26T02:36:42.134Z,0
2016-04-26T02:37:42.120Z,0
2016-04-26T02:38:42.077Z,0
2016-04-26T02:39:42.079Z,0
2016-04-26T02:40:42.082Z,0
2016-04-26T02:41:42.069Z,0
2016-04-26T02:42:42.071Z,0
2016-04-26T02:43:41.996Z,0
2016-04-26T02:44:41.968Z,0
2016-04-26T02:45:41.970Z,0
2016-04-26T02:46:41.675Z,0
2016-04-26T02:47:42.101Z,0
2016-04-26T02:48:41.900Z,0
2016-04-26T02:49:41.871Z,0
2016-04-26T02:50:41.874Z,0
2016-04-26T02:51:41.862Z,0
2016-04-26T02:52:41.817Z,0
2016-04-26T02:53:41.804Z,0
2016-04-26T02:54:41.792Z,0
2016-04-26T02:55:41.621Z,0
2016-04-26T02:56:41.781Z,0
2016-04-26T02:57:41.737Z,0
2016-04-26T02:58:41.724Z,0
2016-04-26T02:59:41.696Z,0
2016-04-26T03:00:41.683Z,0
2016-04-26T03:01:42.857Z,0
2016-04-26T03:02:43.328Z,0
2016-04-26T03:03:41.613Z,0
2016-04-26T03:04:41.599Z,0
2016-04-26T03:05:41.587Z,0
2016-04-26T03:06:41.557Z,0
2016-04-26T03:07:41.560Z,0
2016-04-26T03:08:41.532Z,0
2016-04-26T03:09:41.519Z,0
2016-04-26T03:10:41.490Z,0
2016-04-26T03:11:41.462Z,0
2016-04-26T03:12:41.449Z,0
2016-04-26T03:13:41.451Z,0
2016-04-26T03:14:41.408Z,0
2016-04-26T03:15:41.394Z,0
2016-04-26T03:16:41.367Z,0
2016-04-26T03:17:41.258Z,0
2016-04-26T03:18:41.323Z,0
2016-04-26T03:19:41.310Z,0
2016-04-26T03:20:41.297Z,0
2016-04-26T03:21:41.268Z,0
2016-04-26T03:22:41.271Z,0
2016-04-26T03:23:41.242Z,0
2016-04-26T03:24:41.058Z,0
2016-04-26T03:25:41.217Z,0
2016-04-26T03:26:41.173Z,0
2016-04-26T03:27:41.175Z,0
2016-04-26T03:28:41.147Z,0
2016-04-26T03:29:41.134Z,0
2016-04-26T03:30:41.105Z,0
2016-04-26T03:31:41.452Z,0
2016-04-26T03:32:42.050Z,0
2016-04-26T03:33:41.035Z,0
2016-04-26T03:34:41.022Z,0
2016-04-26T03:35:41.025Z,0
2016-04-26T03:36:40.996Z,0
2016-04-26T03:37:40.968Z,0
2016-04-26T03:38:40.939Z,0
2016-04-26T03:39:40.927Z,0
2016-04-26T03:40:40.897Z,0
2016-04-26T03:41:40.885Z,0
2016-04-26T03:42:40.872Z,0
2016-04-26T03:43:40.859Z,0
2016-04-26T03:44:40.830Z,0
2016-04-26T03:45:40.817Z,0
2016-04-26T03:46:41.336Z,0
2016-04-26T03:47:40.979Z,0
2016-04-26T03:48:40.762Z,0
2016-04-26T03:49:40.766Z,0
2016-04-26T03:50:40.721Z,0
2016-04-26T03:51:40.709Z,0
2016-04-26T03:52:40.696Z,0
2016-04-26T03:53:40.682Z,0
2016-04-26T03:54:40.654Z,0
2016-04-26T03:55:40.641Z,0
2016-04-26T03:56:40.612Z,0
2016-04-26T03:57:40.615Z,0
2016-04-26T03:58:40.570Z,0
2016-04-26T03:59:40.543Z,0
2016-04-26T04:00:40.545Z,0
2016-04-26T04:01:40.532Z,0
2016-04-26T04:02:40.489Z,0
2016-04-26T04:03:40.491Z,0
2016-04-26T04:04:40.461Z,0
2016-04-26T04:05:40.434Z,5
2016-04-26T04:06:40.421Z,5
2016-04-26T04:07:40.439Z,5
2016-04-26T04:08:40.380Z,5
2016-04-26T04:09:40.382Z,5
2016-04-26T04:10:40.348Z,10
2016-04-26T04:11:40.319Z,10
2016-04-26T04:12:40.306Z,10
2016-04-26T04:13:40.293Z,10
2016-04-26T04:14:40.312Z,15
2016-04-26T04:15:40.251Z,15
2016-04-26T04:16:40.504Z,15
2016-04-26T04:17:40.757Z,20
2016-04-26T04:18:40.244Z,20
2016-04-26T04:19:40.168Z,20
2016-04-26T04:20:40.156Z,25
2016-04-26T04:21:40.142Z,25
2016-04-26T04:22:40.145Z,30
2016-04-26T04:23:40.101Z,30
2016-04-26T04:24:40.089Z,30
2016-04-26T04:25:40.059Z,35
2016-04-26T04:26:40.047Z,35
2016-04-26T04:27:40.050Z,40
2016-04-26T04:28:40.005Z,40
2016-04-26T04:29:39.992Z,45
2016-04-26T04:30:39.979Z,50
2016-04-26T04:31:40.030Z,50
2016-04-26T04:32:39.954Z,55
2016-04-26T04:33:39.910Z,55
2016-04-26T04:34:40.131Z,60
2016-04-26T04:35:39.883Z,60
2016-04-26T04:36:39.714Z,65
2016-04-26T04:37:39.826Z,70
2016-04-26T04:38:39.829Z,70
2016-04-26T04:39:39.785Z,75
2016-04-26T04:40:39.788Z,80
2016-04-26T04:41:39.774Z,85
2016-04-26T04:42:39.746Z,90
2016-04-26T04:43:39.733Z,90
2016-04-26T04:44:39.704Z,95
2016-04-26T04:45:39.692Z,105
2016-04-26T04:46:39.866Z,105
2016-04-26T04:47:40.025Z,110
2016-04-26T04:48:39.637Z,115
2016-04-26T04:49:39.624Z,115
2016-04-26T04:50:39.595Z,120
2016-04-26T04:51:39.583Z,125
2016-04-26T04:52:39.554Z,130
2016-04-26T04:53:39.541Z,135
2016-04-26T04:54:39.528Z,140
2016-04-26T04:55:39.500Z,145
2016-04-26T04:56:39.502Z,145
2016-04-26T04:57:39.474Z,155
2016-04-26T04:58:39.445Z,155
2016-04-26T04:59:39.433Z,160
2016-04-26T05:00:39.419Z,165
2016-04-26T05:01:39.391Z,165
2016-04-26T05:02:39.613Z,175
2016-04-26T05:03:39.365Z,180
2016-04-26T05:04:39.336Z,185
2016-04-26T05:05:39.339Z,195
2016-04-26T05:06:39.326Z,200
2016-04-26T05:07:39.314Z,200
2016-04-26T05:08:39.299Z,205
2016-04-26T05:09:39.272Z,220
2016-04-26T05:10:39.244Z,215
2016-04-26T05:11:39.246Z,205
2016-04-26T05:12:39.233Z,215
2016-04-26T05:13:39.204Z,235
2016-04-26T05:14:39.207Z,245
2016-04-26T05:15:39.179Z,230
2016-04-26T05:16:39.275Z,220
2016-04-26T05:17:39.574Z,220
2016-04-26T05:18:39.108Z,225
2016-04-26T05:19:39.112Z,235
2016-04-26T05:20:39.099Z,270
2016-04-26T05:21:39.085Z,310
2016-04-26T05:22:39.057Z,325
2016-04-26T05:23:39.059Z,325
2016-04-26T05:24:39.031Z,335
2016-04-26T05:25:39.050Z,345
2016-04-26T05:26:39.020Z,350
2016-04-26T05:27:39.008Z,355
2016-04-26T05:28:38.995Z,365
2016-04-26T05:29:38.967Z,380
2016-04-26T05:30:38.969Z,390
2016-04-26T05:31:38.894Z,400
2016-04-26T05:32:39.350Z,405
2016-04-26T05:33:38.946Z,415
2016-04-26T05:34:38.949Z,430
2016-04-26T05:35:38.952Z,430
2016-04-26T05:36:38.907Z,445
2016-04-26T05:37:38.910Z,460
2016-04-26T05:38:38.880Z,440
2016-04-26T05:39:38.883Z,380
2016-04-26T05:40:38.871Z,325
2016-04-26T05:41:38.857Z,360
2016-04-26T05:42:38.845Z,445
2016-04-26T05:43:38.832Z,500
2016-04-26T05:44:38.835Z,510
2016-04-26T05:45:38.087Z,495
2016-04-26T05:46:38.840Z,420
2016-04-26T05:47:39.076Z,420
2016-04-26T05:48:38.782Z,505
2016-04-26T05:49:38.770Z,540
2016-04-26T05:50:38.757Z,540
2016-04-26T05:51:38.760Z,450
2016-04-26T05:52:38.762Z,365
2016-04-26T05:53:38.750Z,430
2016-04-26T05:54:38.721Z,530
2016-04-26T05:55:38.723Z,620
2016-04-26T05:56:38.715Z,645
2016-04-26T05:57:38.749Z,655
2016-04-26T05:58:42.428Z,670
2016-04-26T05:59:38.681Z,680
2016-04-26T06:00:42.949Z,690
2016-04-26T06:01:40.508Z,675
2016-04-26T06:02:39.511Z,700
2016-04-26T06:03:38.654Z,755
2016-04-26T06:04:38.641Z,755
2016-04-26T06:05:38.723Z,865
2016-04-26T06:06:38.631Z,940
2016-04-26T06:07:38.619Z,425
2016-04-26T06:08:38.496Z,360
2016-04-26T06:09:38.592Z,405
2016-04-26T06:10:38.594Z,785
2016-04-26T06:11:38.597Z,585
2016-04-26T06:12:38.585Z,670
2016-04-26T06:13:38.477Z,865
2016-04-26T06:14:38.574Z,740
2016-04-26T06:15:38.593Z,580
2016-04-26T06:16:38.596Z,515
2016-04-26T06:17:38.396Z,605
2016-04-26T06:18:38.523Z,580
2016-04-26T06:19:37.776Z,580
2016-04-26T06:20:38.512Z,925
2016-04-26T06:21:38.499Z,1095
2016-04-26T06:22:38.505Z,1150
2016-04-26T06:23:38.477Z,940
2016-04-26T06:24:38.480Z,825
2016-04-26T06:25:38.466Z,710
2016-04-26T06:26:38.454Z,645
2016-04-26T06:27:38.440Z,615
2016-04-26T06:28:38.443Z,650
2016-04-26T06:29:38.415Z,635
2016-04-26T06:30:38.402Z,605
2016-04-26T06:31:38.437Z,595
2016-04-26T06:32:39.064Z,495
2016-04-26T06:33:38.395Z,435
2016-04-26T06:34:38.381Z,420
2016-04-26T06:35:38.353Z,465
2016-04-26T06:36:38.340Z,575
2016-04-26T06:37:38.327Z,720
2016-04-26T06:38:38.314Z,1015
2016-04-26T06:39:38.300Z,845
2016-04-26T06:40:38.304Z,960
2016-04-26T06:41:38.291Z,570
2016-04-26T06:42:38.308Z,570
2016-04-26T06:43:38.281Z,605
2016-04-26T06:44:38.252Z,750
2016-04-26T06:45:38.286Z,470
2016-04-26T06:46:38.242Z,625
2016-04-26T06:47:39.150Z,960
2016-04-26T06:48:38.200Z,1315
2016-04-26T06:49:38.218Z,1050
2016-04-26T06:50:38.205Z,1315
2016-04-26T06:51:38.193Z,1480
2016-04-26T06:52:37.445Z,1520
2016-04-26T06:53:38.166Z,1635
2016-04-26T06:54:38.138Z,1685
2016-04-26T06:55:38.141Z,1415
2016-04-26T06:56:38.128Z,885
2016-04-26T06:57:38.146Z,840
2016-04-26T06:58:38.117Z,1235
2016-04-26T06:59:38.167Z,1065
2016-04-26T07:00:38.092Z,715
2016-04-26T07:01:38.234Z,755
2016-04-26T07:02:39.706Z,1575
2016-04-26T07:03:38.053Z,1015
2016-04-26T07:04:38.040Z,1625
2016-04-26T07:05:38.043Z,1410
2016-04-26T07:06:38.031Z,770
2016-04-26T07:07:38.017Z,770
2016-04-26T07:08:38.004Z,755
2016-04-26T07:09:38.023Z,775
2016-04-26T07:10:37.978Z,815
2016-04-26T07:11:37.965Z,830
2016-04-26T07:12:37.967Z,785
2016-04-26T07:13:37.939Z,730
2016-04-26T07:14:37.973Z,640
2016-04-26T07:15:37.930Z,485
2016-04-26T07:16:37.916Z,430
2016-04-26T07:17:37.591Z,370
2016-04-26T07:18:37.891Z,330
2016-04-26T07:19:37.878Z,305
2016-04-26T07:20:37.896Z,340
2016-04-26T07:21:37.852Z,490
2016-04-26T07:22:37.843Z,465
2016-04-26T07:23:37.815Z,510
2016-04-26T07:24:37.801Z,630
2016-04-26T07:25:37.804Z,805
2016-04-26T07:26:37.823Z,965
2016-04-26T07:27:37.763Z,1000
2016-04-26T07:28:37.860Z,820
2016-04-26T07:29:37.893Z,540
2016-04-26T07:30:37.740Z,510
2016-04-26T07:31:37.726Z,595
2016-04-26T07:32:38.729Z,620
2016-04-26T07:33:37.670Z,665
2016-04-26T07:34:37.656Z,685
2016-04-26T07:35:37.660Z,660
2016-04-26T07:36:37.630Z,675
2016-04-26T07:37:37.617Z,545
2016-04-26T07:38:37.621Z,390
2016-04-26T07:39:37.592Z,340
2016-04-26T07:40:37.611Z,330
2016-04-26T07:41:37.566Z,395
2016-04-26T07:42:38.272Z,440
2016-04-26T07:43:37.541Z,475
2016-04-26T07:44:37.527Z,480
2016-04-26T07:45:38.749Z,415
2016-04-26T07:46:37.485Z,425
2016-04-26T07:47:38.692Z,430
2016-04-26T07:48:37.772Z,390
2016-04-26T07:49:37.432Z,395
2016-04-26T07:50:37.435Z,460
2016-04-26T07:51:37.421Z,505
2016-04-26T07:52:37.393Z,545
2016-04-26T07:53:37.380Z,520
2016-04-26T07:54:37.382Z,460
2016-04-26T07:55:37.354Z,335
2016-04-26T07:56:37.387Z,290
2016-04-26T07:57:37.344Z,335
2016-04-26T07:58:37.300Z,520
2016-04-26T07:59:37.287Z,700
2016-04-26T08:00:37.305Z,665
2016-04-26T08:01:37.276Z,640
2016-04-26T08:02:37.247Z,545
2016-04-26T08:03:37.032Z,640
2016-04-26T08:04:37.222Z,770
2016-04-26T08:05:37.193Z,620
2016-04-26T08:06:37.211Z,695
2016-04-26T08:07:37.183Z,740
2016-04-26T08:08:37.155Z,920
2016-04-26T08:09:37.142Z,1240
2016-04-26T08:10:36.973Z,1150
2016-04-26T08:11:37.147Z,1005
2016-04-26T08:12:36.947Z,930
2016-04-26T08:13:37.075Z,930
2016-04-26T08:14:37.092Z,1225
2016-04-26T08:15:37.080Z,1100
2016-04-26T08:16:37.066Z,1060
2016-04-26T08:17:37.022Z,1065
2016-04-26T08:18:38.557Z,1315
2016-04-26T08:19:36.997Z,1470
2016-04-26T08:20:36.984Z,1475
2016-04-26T08:21:37.002Z,1070
2016-04-26T08:22:36.958Z,725
2016-04-26T08:23:36.961Z,600
2016-04-26T08:24:36.932Z,650
2016-04-26T08:25:36.935Z,600
2016-04-26T08:26:36.906Z,695
2016-04-26T08:27:36.940Z,910
2016-04-26T08:28:36.872Z,930
2016-04-26T08:29:36.874Z,965
2016-04-26T08:30:36.864Z,1215
2016-04-26T08:31:36.877Z,1065
2016-04-26T08:32:37.062Z,780
2016-04-26T08:33:37.356Z,660
2016-04-26T08:34:36.964Z,725
2016-04-26T08:35:36.991Z,885
2016-04-26T08:36:36.993Z,1070
2016-04-26T08:37:37.011Z,1055
2016-04-26T08:38:37.013Z,890
2016-04-26T08:39:37.047Z,935
2016-04-26T08:40:37.016Z,1235
2016-04-26T08:41:36.994Z,1495
2016-04-26T08:42:36.986Z,1125
2016-04-26T08:43:36.977Z,1095
2016-04-26T08:44:36.986Z,1150
2016-04-26T08:45:36.979Z,1405
2016-04-26T08:46:36.967Z,1745
2016-04-26T08:47:36.940Z,1230
2016-04-26T08:48:37.539Z,1200
2016-04-26T08:49:36.919Z,1445
2016-04-26T08:50:36.908Z,1705
2016-04-26T08:51:36.911Z,1370
2016-04-26T08:52:41.023Z,920
2016-04-26T08:53:36.871Z,795
2016-04-26T08:54:36.859Z,680
2016-04-26T08:55:36.847Z,585
2016-04-26T08:56:36.834Z,645
2016-04-26T08:57:38.962Z,740
2016-04-26T08:58:36.810Z,700
2016-04-26T08:59:36.797Z,825
2016-04-26T09:00:36.674Z,850
2016-04-26T09:01:36.787Z,815
2016-04-26T09:02:38.992Z,1015
2016-04-26T09:03:38.355Z,1295
2016-04-26T09:04:35.998Z,1460
2016-04-26T09:05:36.734Z,1435
2016-04-26T09:06:36.723Z,1180
2016-04-26T09:07:38.131Z,1100
2016-04-26T09:08:36.728Z,950
2016-04-26T09:09:36.917Z,1115
2016-04-26T09:10:36.701Z,1215
2016-04-26T09:11:36.673Z,1250
2016-04-26T09:12:36.645Z,3120
2016-04-26T09:13:36.631Z,2585
2016-04-26T09:14:36.509Z,1710
2016-04-26T09:15:36.589Z,2100
2016-04-26T09:16:36.592Z,3080
2016-04-26T09:17:36.595Z,1425
2016-04-26T09:18:36.645Z,1000
2016-04-26T09:19:36.585Z,780
2016-04-26T09:20:36.572Z,620
2016-04-26T09:21:36.591Z,515
2016-04-26T09:22:36.547Z,710
2016-04-26T09:23:36.518Z,630
2016-04-26T09:24:36.488Z,415
2016-04-26T09:25:49.211Z,320
2016-04-26T09:26:36.510Z,385
2016-04-26T09:27:36.450Z,375
2016-04-26T09:28:36.438Z,635
2016-04-26T09:29:36.424Z,1045
2016-04-26T09:30:36.427Z,1370
2016-04-26T09:31:36.398Z,1725
2016-04-26T09:32:36.401Z,1690
2016-04-26T09:33:36.263Z,1565
2016-04-26T09:34:36.360Z,1580
2016-04-26T09:35:36.362Z,1620
2016-04-26T09:36:36.350Z,2105
2016-04-26T09:37:36.321Z,1695
2016-04-26T09:38:36.339Z,1780
2016-04-26T09:39:36.295Z,1715
2016-04-26T09:40:36.345Z,1765
2016-04-26T09:41:36.270Z,2420
2016-04-26T09:42:36.256Z,880
2016-04-26T09:43:36.243Z,840
2016-04-26T09:44:36.262Z,1160
2016-04-26T09:45:35.483Z,1035
2016-04-26T09:46:36.220Z,895
2016-04-26T09:47:36.207Z,1070
2016-04-26T09:48:36.413Z,1045
2016-04-26T09:49:36.181Z,925
2016-04-26T09:50:36.262Z,1135
2016-04-26T09:51:36.172Z,1315
2016-04-26T09:52:36.142Z,1100
2016-04-26T09:53:36.130Z,1310
2016-04-26T09:54:36.102Z,1730
2016-04-26T09:55:36.089Z,1315
2016-04-26T09:56:36.090Z,945
2016-04-26T09:57:36.093Z,750
2016-04-26T09:58:36.049Z,830
2016-04-26T09:59:36.036Z,800
2016-04-26T10:00:36.024Z,850
2016-04-26T10:01:36.010Z,800
2016-04-26T10:02:36.013Z,780
2016-04-26T10:03:35.688Z,855
2016-04-26T10:04:35.971Z,1045
2016-04-26T10:05:35.834Z,1160
2016-04-26T10:06:35.962Z,1400
2016-04-26T10:07:35.918Z,1850
2016-04-26T10:08:35.920Z,4370
2016-04-26T10:09:35.923Z,4360
2016-04-26T10:10:35.925Z,1885
2016-04-26T10:11:35.898Z,1660
2016-04-26T10:12:35.868Z,1560
2016-04-26T10:13:35.871Z,1100
2016-04-26T10:14:35.842Z,1085
2016-04-26T10:15:35.829Z,1310
2016-04-26T10:16:35.816Z,1835
2016-04-26T10:17:35.820Z,1900
2016-04-26T10:18:36.166Z,3185
2016-04-26T10:19:35.778Z,4670
2016-04-26T10:20:35.625Z,4410
2016-04-26T10:21:35.752Z,2215
2016-04-26T10:22:35.754Z,2240
2016-04-26T10:23:35.758Z,2360
2016-04-26T10:24:35.745Z,1615
2016-04-26T10:25:35.730Z,1285
2016-04-26T10:26:35.703Z,840
2016-04-26T10:27:35.706Z,750
2016-04-26T10:28:35.708Z,1030
2016-04-26T10:29:35.680Z,875
2016-04-26T10:30:35.682Z,1025
2016-04-26T10:31:35.748Z,1265
2016-04-26T10:32:35.704Z,1910
2016-04-26T10:33:38.082Z,2045
2016-04-26T10:34:37.522Z,1875
2016-04-26T10:35:35.665Z,4525
2016-04-26T10:36:35.635Z,4695
2016-04-26T10:37:35.624Z,1270
2016-04-26T10:38:35.594Z,4245
2016-04-26T10:39:35.582Z,4290
2016-04-26T10:40:35.568Z,4185
2016-04-26T10:41:35.571Z,4090
2016-04-26T10:42:35.573Z,4125
2016-04-26T10:43:35.576Z,4095
2016-04-26T10:44:35.564Z,965
2016-04-26T10:45:35.535Z,4430
2016-04-26T10:46:35.569Z,1675
2016-04-26T10:47:35.369Z,4275
2016-04-26T10:48:36.653Z,2550
2016-04-26T10:49:35.499Z,1860
2016-04-26T10:50:35.487Z,3615
2016-04-26T10:51:35.520Z,2630
2016-04-26T10:52:35.507Z,2310
2016-04-26T10:53:35.478Z,2460
2016-04-26T10:54:35.559Z,1900
2016-04-26T10:55:35.468Z,2330
2016-04-26T10:56:35.456Z,2635
2016-04-26T10:57:35.442Z,1800
2016-04-26T10:58:35.445Z,2220
2016-04-26T10:59:35.447Z,4275
2016-04-26T11:00:35.450Z,2580
2016-04-26T11:01:35.407Z,1940
2016-04-26T11:02:35.253Z,4860
2016-04-26T11:03:34.834Z,2200
2016-04-26T11:04:36.977Z,2230
2016-04-26T11:05:35.417Z,3635
2016-04-26T11:06:35.389Z,1700
2016-04-26T11:07:35.376Z,2675
2016-04-26T11:08:35.363Z,1130
2016-04-26T11:09:35.382Z,1190
2016-04-26T11:10:35.368Z,1005
2016-04-26T11:11:35.355Z,885
2016-04-26T11:12:35.342Z,1625
2016-04-26T11:13:35.330Z,2875
2016-04-26T11:14:35.317Z,2755
2016-04-26T11:15:35.320Z,3465
2016-04-26T11:16:35.322Z,4190
2016-04-26T11:17:35.309Z,2670
2016-04-26T11:18:36.421Z,4895
2016-04-26T11:19:35.689Z,5235
2016-04-26T11:20:35.270Z,4195
2016-04-26T11:21:35.273Z,2655
2016-04-26T11:22:35.259Z,2055
2016-04-26T11:23:35.262Z,2240
2016-04-26T11:24:35.265Z,2015
2016-04-26T11:25:35.253Z,2250
2016-04-26T11:26:35.145Z,1695
2016-04-26T11:27:35.227Z,2210
2016-04-26T11:28:35.230Z,4490
2016-04-26T11:29:35.233Z,1985
2016-04-26T11:30:35.219Z,2030
2016-04-26T11:31:35.206Z,1965
2016-04-26T11:32:35.224Z,1985
2016-04-26T11:33:35.055Z,1695
2016-04-26T11:34:35.636Z,1095
2016-04-26T11:35:35.170Z,895
2016-04-26T11:36:35.157Z,845
2016-04-26T11:37:35.143Z,890
2016-04-26T11:38:35.147Z,920
2016-04-26T11:39:35.134Z,880
2016-04-26T11:40:35.137Z,900
2016-04-26T11:41:35.108Z,1030
2016-04-26T11:42:35.110Z,1350
2016-04-26T11:43:35.112Z,1535
2016-04-26T11:44:35.100Z,1930
2016-04-26T11:45:37.932Z,2235
2016-04-26T11:46:35.059Z,2200
2016-04-26T11:47:35.046Z,1650
2016-04-26T11:48:35.784Z,1655
2016-04-26T11:49:35.848Z,2655
2016-04-26T11:50:35.039Z,2345
2016-04-26T11:51:35.150Z,1625
2016-04-26T11:52:35.059Z,1715
2016-04-26T11:53:35.000Z,2045
2016-04-26T11:54:34.987Z,2385
2016-04-26T11:55:34.974Z,2925
2016-04-26T11:56:35.023Z,2745
2016-04-26T11:57:34.963Z,2070
2016-04-26T11:58:34.794Z,1595
2016-04-26T11:59:34.953Z,1715
2016-04-26T12:00:34.924Z,1545
2016-04-26T12:01:34.911Z,1740
2016-04-26T12:02:34.899Z,1890
2016-04-26T12:03:35.292Z,1085
2016-04-26T12:04:35.122Z,1725
2016-04-26T12:05:34.875Z,1995
2016-04-26T12:06:34.863Z,2175
2016-04-26T12:07:34.866Z,2840
2016-04-26T12:08:34.837Z,1940
2016-04-26T12:09:34.824Z,2125
2016-04-26T12:10:34.795Z,2910
2016-04-26T12:11:34.799Z,3695
2016-04-26T12:12:34.816Z,2655
2016-04-26T12:13:34.787Z,3595
2016-04-26T12:14:34.774Z,2730
2016-04-26T12:15:34.777Z,2950
2016-04-26T12:16:34.748Z,1615
2016-04-26T12:17:34.752Z,1105
2016-04-26T12:18:34.879Z,585
2016-04-26T12:19:35.210Z,505
2016-04-26T12:20:34.728Z,795
2016-04-26T12:21:34.715Z,1090
2016-04-26T12:22:34.702Z,1200
2016-04-26T12:23:34.689Z,925
2016-04-26T12:24:34.676Z,560
2016-04-26T12:25:34.664Z,495
2016-04-26T12:26:34.666Z,575
2016-04-26T12:27:34.653Z,885
2016-04-26T12:28:34.500Z,960
2016-04-26T12:29:34.628Z,895
2016-04-26T12:30:34.614Z,885
2016-04-26T12:31:34.602Z,945
2016-04-26T12:32:34.589Z,1040
2016-04-26T12:33:37.310Z,1145
2016-04-26T12:34:34.813Z,1230
2016-04-26T12:35:34.674Z,1290
2016-04-26T12:36:34.569Z,1320
2016-04-26T12:37:34.524Z,1325
2016-04-26T12:38:34.511Z,1335
2016-04-26T12:39:34.499Z,1315
2016-04-26T12:40:34.485Z,1290
2016-04-26T12:41:34.488Z,1335
2016-04-26T12:42:34.475Z,1340
2016-04-26T12:43:34.463Z,1360
2016-04-26T12:44:34.434Z,1410
2016-04-26T12:45:34.420Z,1535
2016-04-26T12:46:34.424Z,1740
2016-04-26T12:47:34.411Z,2050
2016-04-26T12:48:36.335Z,1970
2016-04-26T12:49:35.790Z,1910
2016-04-26T12:50:40.982Z,1910
2016-04-26T12:51:34.343Z,1900
2016-04-26T12:52:34.362Z,1845
2016-04-26T12:53:34.192Z,1830
2016-04-26T12:54:34.164Z,1795
2016-04-26T12:55:34.151Z,1840
2016-04-26T12:56:34.294Z,1830
2016-04-26T12:57:34.281Z,1840
2016-04-26T12:58:34.253Z,2000
2016-04-26T12:59:34.256Z,2015
2016-04-26T13:00:34.242Z,2020
2016-04-26T13:01:34.245Z,2275
2016-04-26T13:02:34.233Z,2780
2016-04-26T13:03:35.078Z,2800
2016-04-26T13:04:33.988Z,3160
2016-04-26T13:05:34.178Z,2635
2016-04-26T13:06:34.196Z,3830
2016-04-26T13:07:34.167Z,4060
2016-04-26T13:08:34.169Z,3965
2016-04-26T13:09:34.142Z,3320
2016-04-26T13:10:34.129Z,3725
2016-04-26T13:11:34.146Z,3870
2016-04-26T13:12:34.118Z,1700
2016-04-26T13:13:34.138Z,1975
2016-04-26T13:14:34.092Z,3710
2016-04-26T13:15:34.079Z,3485
2016-04-26T13:16:34.082Z,2365
2016-04-26T13:17:34.074Z,2410
2016-04-26T13:18:34.561Z,1560
2016-04-26T13:19:33.674Z,995
2016-04-26T13:20:34.051Z,805
2016-04-26T13:21:34.022Z,725
2016-04-26T13:22:34.026Z,680
2016-04-26T13:23:33.997Z,640
2016-04-26T13:24:33.984Z,590
2016-04-26T13:25:33.987Z,565
2016-04-26T13:26:33.973Z,525
2016-04-26T13:27:33.976Z,445
2016-04-26T13:28:33.947Z,370
2016-04-26T13:29:33.216Z,330
2016-04-26T13:30:33.922Z,300
2016-04-26T13:31:33.909Z,260
2016-04-26T13:32:33.911Z,240
2016-04-26T13:33:34.211Z,260
2016-04-26T13:34:34.229Z,285
2016-04-26T13:35:33.888Z,315
2016-04-26T13:36:33.861Z,380
2016-04-26T13:37:33.831Z,450
2016-04-26T13:38:33.834Z,520
2016-04-26T13:39:33.806Z,645
2016-04-26T13:40:33.793Z,750
2016-04-26T13:41:33.780Z,795
2016-04-26T13:42:33.766Z,810
2016-04-26T13:43:33.754Z,815
2016-04-26T13:44:33.725Z,855
2016-04-26T13:45:33.712Z,945
2016-04-26T13:46:33.699Z,1065
2016-04-26T13:47:33.702Z,1185
2016-04-26T13:48:33.689Z,1290
2016-04-26T13:49:33.723Z,1405
2016-04-26T13:50:33.648Z,1575
2016-04-26T13:51:33.665Z,1645
2016-04-26T13:52:33.622Z,1690
2016-04-26T13:53:33.609Z,1785
2016-04-26T13:54:33.612Z,1780
2016-04-26T13:55:33.599Z,1805